Kongen — LCDE — position and weather

sailwx.info

Track history (hours):
 
Tides and Currents Weather Stations Pressure Air Temp Water Temp Dewpoint Dewpoint Depression Visibility Wind Speed Wind Dir Waves Ship Positions

Kongen

Last reported at 2015-Feb-28 16:23 UTC. Time now 2015-Feb-28 17:27 UTC.
Position N 59°55' E 010°44'.

Length 50 m; draft 3.2 m.

Type: Passenger vessel. MMSI: 258509000.

Date/timePositionNaut miles runAvg speedWind from/ knotsBaromVisibWave heightAir tempDewpointWater temp
2015-Feb-28 16:23N 59°55' E 010°44'0 0.1
2015-Feb-28 15:33N 59°55' E 010°44'0 0.1
2015-Feb-28 14:31N 59°55' E 010°44'0 0.1
2015-Feb-28 13:33N 59°55' E 010°44'0 0.0
2015-Feb-28 12:33N 59°55' E 010°44'0 0.0
2015-Feb-28 11:33N 59°54' E 010°44'0 0.0
2015-Feb-28 10:33N 59°54' E 010°44'0 0.1
2015-Feb-28 09:33N 59°55' E 010°44'0 0.0
2015-Feb-28 08:33N 59°55' E 010°44'0 0.0
2015-Feb-28 07:33N 59°55' E 010°44'0 0.0
2015-Feb-28 06:33N 59°55' E 010°44'0 0.0
2015-Feb-28 05:33N 59°55' E 010°44'0 0.0
2015-Feb-28 04:30N 59°55' E 010°44'0 0.0
2015-Feb-28 03:30N 59°55' E 010°44'0 0.0
2015-Feb-28 02:33N 59°55' E 010°44'0 0.0
2015-Feb-28 01:30N 59°55' E 010°44'0 0.0
2015-Feb-28 00:33N 59°55' E 010°44'0 0.0
2015-Feb-27 23:18N 59°55' E 010°44'0 0.0
2015-Feb-27 22:33N 59°55' E 010°44'0 0.0
2015-Feb-27 21:24N 59°55' E 010°44'0 0.0
2015-Feb-27 20:33N 59°55' E 010°44'0 0.0
2015-Feb-27 19:09N 59°55' E 010°44'0 0.0
2015-Feb-27 18:23N 59°55' E 010°44'0 0.1
2015-Feb-27 17:33N 59°55' E 010°44'0 0.0
2015-Feb-27 16:33N 59°55' E 010°44'0 0.0
2015-Feb-27 15:32N 59°55' E 010°44'0 0.0
2015-Feb-27 14:33N 59°55' E 010°44'0 0.1
2015-Feb-27 13:33N 59°55' E 010°44'0 0.0
2015-Feb-27 12:33N 59°55' E 010°44'0 0.0
2015-Feb-27 11:33N 59°55' E 010°44'0 0.1
2015-Feb-27 10:23N 59°55' E 010°44'0 0.0
2015-Feb-27 09:23N 59°55' E 010°44'0 0.0
2015-Feb-27 08:29N 59°55' E 010°44'1 1.2
2015-Feb-27 07:33N 59°54' E 010°42'0 0.1
2015-Feb-27 06:33N 59°54' E 010°42'1 1.1
2015-Feb-27 05:33N 59°55' E 010°44'2 0.2
2015-Feb-26 16:27N 59°53' E 010°41'1 0.8
2015-Feb-26 15:33N 59°52' E 010°40'1 1.0
2015-Feb-26 14:26N 59°53' E 010°41'2 2.2
2015-Feb-26 13:30N 59°55' E 010°44'0 0.0
2015-Feb-26 12:30N 59°55' E 010°44'0 0.0
2015-Feb-26 11:30N 59°55' E 010°44'0 0.1
2015-Feb-26 10:33N 59°55' E 010°44'0 0.1
2015-Feb-26 09:33N 59°55' E 010°44'0 0.1
2015-Feb-26 08:33N 59°55' E 010°44'1 1.0
2015-Feb-26 07:33N 59°54' E 010°42'2 1.3
2015-Feb-26 06:24N 59°53' E 010°40'0 0.0
2015-Feb-25 18:04N 59°53' E 010°40'1 0.2
2015-Feb-25 14:10N 59°54' E 010°41'0 0.1
2015-Feb-25 13:10N 59°53' E 010°41'1 0.0
2015-Feb-24 11:33N 59°54' E 010°42'1 0.6
2015-Feb-24 10:31N 59°55' E 010°44'0 0.0
2015-Feb-24 09:33N 59°55' E 010°44'0 0.0
2015-Feb-24 08:33N 59°55' E 010°44'2 1.5
2015-Feb-24 07:31N 59°54' E 010°42'0 0.4
2015-Feb-24 06:33N 59°54' E 010°42'1 1.1
2015-Feb-24 05:33N 59°55' E 010°44'0 0.0
2015-Feb-24 04:23N 59°55' E 010°44'0 0.0
2015-Feb-24 03:26N 59°55' E 010°44'0 0.0
2015-Feb-24 02:26N 59°55' E 010°44'0 0.0
2015-Feb-24 01:26N 59°55' E 010°44'0 0.0
2015-Feb-24 00:26N 59°55' E 010°44'0 0.0
2015-Feb-23 23:11N 59°55' E 010°44'0 0.0
2015-Feb-23 22:29N 59°55' E 010°44'0 0.0
2015-Feb-23 21:29N 59°55' E 010°44'0 0.0
2015-Feb-23 20:32N 59°55' E 010°44'0 0.0
2015-Feb-23 19:32N 59°55' E 010°44'0 0.0
2015-Feb-23 18:32N 59°55' E 010°44'0 0.0
2015-Feb-23 17:33N 59°55' E 010°44'0 0.0
2015-Feb-23 16:33N 59°55' E 010°44'0 0.1
2015-Feb-23 15:33N 59°55' E 010°44'0 0.1
2015-Feb-23 14:33N 59°55' E 010°44'0 0.0
2015-Feb-23 13:33N 59°55' E 010°44'0 0.0
2015-Feb-23 12:33N 59°55' E 010°44'0 0.0
2015-Feb-23 11:32N 59°55' E 010°44'0 0.0
2015-Feb-23 10:33N 59°55' E 010°44'0 0.0
2015-Feb-23 09:33N 59°55' E 010°44'0 0.0
2015-Feb-23 08:33N 59°55' E 010°44'0 0.1
2015-Feb-23 07:33N 59°55' E 010°44'0 0.1
2015-Feb-23 06:33N 59°55' E 010°44'0 0.0
2015-Feb-23 05:33N 59°55' E 010°44'0 0.0
2015-Feb-22 23:33N 59°54' E 010°44'0 0.1
2015-Feb-22 22:33N 59°55' E 010°44'0 0.1
2015-Feb-22 21:33N 59°55' E 010°44'0 0.1
2015-Feb-22 20:33N 59°54' E 010°44'0 0.0
2015-Feb-22 19:34N 59°54' E 010°44'0 0.1
2015-Feb-22 18:34N 59°55' E 010°44'0 0.0
2015-Feb-22 17:33N 59°55' E 010°44'0 0.1
2015-Feb-22 16:34N 59°55' E 010°44'0 0.1
2015-Feb-22 15:34N 59°54' E 010°44'0 0.2
2015-Feb-22 14:33N 59°55' E 010°44'0 0.0
2015-Feb-22 13:26N 59°55' E 010°44'0 0.0
2015-Feb-22 12:11N 59°55' E 010°44'0 0.0
2015-Feb-22 11:26N 59°55' E 010°44'0 0.0
2015-Feb-22 10:26N 59°55' E 010°44'0 0.0
2015-Feb-22 09:23N 59°55' E 010°44'0 0.0
2015-Feb-22 08:29N 59°55' E 010°44'0 0.0
2015-Feb-22 07:29N 59°55' E 010°44'0 0.0
2015-Feb-22 06:17N 59°55' E 010°44'0 0.0
2015-Feb-22 05:17N 59°55' E 010°44'0 0.0
2015-Feb-22 04:32N 59°55' E 010°44'0 0.0
2015-Feb-22 03:32N 59°55' E 010°44'0 0.1
2015-Feb-22 02:33N 59°54' E 010°44'0 0.0
2015-Feb-22 01:33N 59°55' E 010°44'0 0.0
2015-Feb-22 00:33N 59°55' E 010°44'0 0.1
2015-Feb-21 23:33N 59°54' E 010°44'0 0.1
2015-Feb-21 22:33N 59°55' E 010°44'0 0.0
2015-Feb-21 21:33N 59°55' E 010°44'0 0.0
2015-Feb-21 20:33N 59°55' E 010°44'0 0.1
2015-Feb-21 19:33N 59°55' E 010°44'0 0.0
2015-Feb-21 18:33N 59°55' E 010°44'0 0.0
2015-Feb-21 17:33N 59°55' E 010°44'0 0.1
2015-Feb-21 16:32N 59°55' E 010°44'0 0.0
2015-Feb-21 15:31N 59°55' E 010°44'0 0.0
2015-Feb-21 14:31N 59°55' E 010°44'0 0.0
2015-Feb-21 13:22N 59°55' E 010°44'0 0.0
2015-Feb-21 12:25N 59°55' E 010°44'0 0.0
2015-Feb-21 11:25N 59°55' E 010°44'0 0.0
2015-Feb-21 10:25N 59°55' E 010°44'0 0.0
2015-Feb-21 09:28N 59°55' E 010°44'0 0.0
2015-Feb-21 08:28N 59°55' E 010°44'0 0.0
2015-Feb-21 07:28N 59°55' E 010°44'0 0.0
2015-Feb-21 06:13N 59°55' E 010°44'0 0.0
2015-Feb-21 05:28N 59°55' E 010°44'0 0.0
2015-Feb-21 04:28N 59°55' E 010°44'0 0.0
2015-Feb-21 03:31N 59°55' E 010°44'0 0.1
2015-Feb-21 02:33N 59°55' E 010°44'0 0.0
2015-Feb-21 01:33N 59°55' E 010°44'0 0.0
2015-Feb-21 00:33N 59°55' E 010°44'0 0.0
2015-Feb-20 23:33N 59°55' E 010°44'0 0.1
2015-Feb-20 22:33N 59°55' E 010°44'0 0.0
2015-Feb-20 21:33N 59°55' E 010°44'0 0.0
2015-Feb-20 20:33N 59°55' E 010°44'0 0.0
2015-Feb-20 19:24N 59°55' E 010°44'2 2.6
2015-Feb-20 18:33N 59°53' E 010°41'1 0.7
2015-Feb-20 17:33N 59°53' E 010°40'0 0.0
2015-Feb-20 16:33N 59°53' E 010°40'2 1.6
2015-Feb-20 15:32N 59°54' E 010°42'1 1.2
2015-Feb-20 14:31N 59°55' E 010°44'0 0.0
2015-Feb-20 13:31N 59°55' E 010°44'0 0.0
2015-Feb-20 12:31N 59°55' E 010°44'0 0.0
2015-Feb-20 11:19N 59°55' E 010°44'0 0.0
2015-Feb-20 10:31N 59°55' E 010°44'0 0.0
2015-Feb-20 09:31N 59°55' E 010°44'0 0.0
2015-Feb-20 08:22N 59°55' E 010°44'2 2.5
2015-Feb-20 07:27N 59°53' E 010°40'0 0.5
2015-Feb-20 06:30N 59°53' E 010°40'0 0.1
2015-Feb-20 05:33N 59°53' E 010°40'0 0.4
2015-Feb-20 04:21N 59°52' E 010°39'0 0.0
2015-Feb-19 21:19N 59°52' E 010°39'0 0.0
2015-Feb-19 20:19N 59°52' E 010°39'0 0.0
2015-Feb-19 19:04N 59°52' E 010°39'0 0.0
2015-Feb-19 18:24N 59°52' E 010°39'0 0.2
2015-Feb-19 17:23N 59°52' E 010°40'0 0.3
2015-Feb-19 16:33N 59°53' E 010°40'2 1.5
2015-Feb-19 15:33N 59°54' E 010°42'1 1.3
2015-Feb-19 14:34N 59°55' E 010°44'0 0.0
2015-Feb-19 13:25N 59°55' E 010°44'0 0.0
2015-Feb-19 12:22N 59°55' E 010°44'0 0.0
2015-Feb-19 11:28N 59°55' E 010°44'1 0.6
2015-Feb-19 10:33N 59°54' E 010°43'3 2.7
2015-Feb-19 09:33N 59°52' E 010°42'2 2.0
2015-Feb-19 08:33N 59°53' E 010°43'2 2.1
2015-Feb-19 07:32N 59°52' E 010°40'0 0.1
2015-Feb-19 06:32N 59°53' E 010°40'0 0.1
2015-Feb-19 05:21N 59°53' E 010°40'0 0.1
2015-Feb-19 00:05N 59°52' E 010°39'0 0.0
2015-Feb-18 21:23N 59°52' E 010°39'1 0.3
2015-Feb-18 18:17N 59°53' E 010°40'1 0.8
2015-Feb-18 17:33N 59°53' E 010°40'0 0.0
2015-Feb-18 16:32N 59°53' E 010°40'  
Track history (hours):
 
Tides and Currents Weather Stations Pressure Air Temp Water Temp Dewpoint Dewpoint Depression Visibility Wind Speed Wind Dir Waves Ship Positions

Kongen

Last reported at 2015-Feb-28 16:23 UTC. Time now 2015-Feb-28 17:27 UTC.
Position N 59°55' E 010°44'.

Length 50 m; draft 3.2 m.

Type: Passenger vessel. MMSI: 258509000.

Date/timePositionNaut miles runAvg speedWind from/ knotsBaromVisibWave heightAir tempDewpointWater temp
2015-Feb-28 16:23N 59°55' E 010°44'0 0.1
2015-Feb-28 15:33N 59°55' E 010°44'0 0.1
2015-Feb-28 14:31N 59°55' E 010°44'0 0.1
2015-Feb-28 13:33N 59°55' E 010°44'0 0.0
2015-Feb-28 12:33N 59°55' E 010°44'0 0.0
2015-Feb-28 11:33N 59°54' E 010°44'0 0.0
2015-Feb-28 10:33N 59°54' E 010°44'0 0.1
2015-Feb-28 09:33N 59°55' E 010°44'0 0.0
2015-Feb-28 08:33N 59°55' E 010°44'0 0.0
2015-Feb-28 07:33N 59°55' E 010°44'0 0.0
2015-Feb-28 06:33N 59°55' E 010°44'0 0.0
2015-Feb-28 05:33N 59°55' E 010°44'0 0.0
2015-Feb-28 04:30N 59°55' E 010°44'0 0.0
2015-Feb-28 03:30N 59°55' E 010°44'0 0.0
2015-Feb-28 02:33N 59°55' E 010°44'0 0.0
2015-Feb-28 01:30N 59°55' E 010°44'0 0.0
2015-Feb-28 00:33N 59°55' E 010°44'0 0.0
2015-Feb-27 23:18N 59°55' E 010°44'0 0.0
2015-Feb-27 22:33N 59°55' E 010°44'0 0.0
2015-Feb-27 21:24N 59°55' E 010°44'0 0.0
2015-Feb-27 20:33N 59°55' E 010°44'0 0.0
2015-Feb-27 19:09N 59°55' E 010°44'0 0.0
2015-Feb-27 18:23N 59°55' E 010°44'0 0.1
2015-Feb-27 17:33N 59°55' E 010°44'0 0.0
2015-Feb-27 16:33N 59°55' E 010°44'0 0.0
2015-Feb-27 15:32N 59°55' E 010°44'0 0.0
2015-Feb-27 14:33N 59°55' E 010°44'0 0.1
2015-Feb-27 13:33N 59°55' E 010°44'0 0.0
2015-Feb-27 12:33N 59°55' E 010°44'0 0.0
2015-Feb-27 11:33N 59°55' E 010°44'0 0.1
2015-Feb-27 10:23N 59°55' E 010°44'0 0.0
2015-Feb-27 09:23N 59°55' E 010°44'0 0.0
2015-Feb-27 08:29N 59°55' E 010°44'1 1.2
2015-Feb-27 07:33N 59°54' E 010°42'0 0.1
2015-Feb-27 06:33N 59°54' E 010°42'1 1.1
2015-Feb-27 05:33N 59°55' E 010°44'2 0.2
2015-Feb-26 16:27N 59°53' E 010°41'1 0.8
2015-Feb-26 15:33N 59°52' E 010°40'1 1.0
2015-Feb-26 14:26N 59°53' E 010°41'2 2.2
2015-Feb-26 13:30N 59°55' E 010°44'0 0.0
2015-Feb-26 12:30N 59°55' E 010°44'0 0.0
2015-Feb-26 11:30N 59°55' E 010°44'0 0.1
2015-Feb-26 10:33N 59°55' E 010°44'0 0.1
2015-Feb-26 09:33N 59°55' E 010°44'0 0.1
2015-Feb-26 08:33N 59°55' E 010°44'1 1.0
2015-Feb-26 07:33N 59°54' E 010°42'2 1.3
2015-Feb-26 06:24N 59°53' E 010°40'0 0.0
2015-Feb-25 18:04N 59°53' E 010°40'1 0.2
2015-Feb-25 14:10N 59°54' E 010°41'0 0.1
2015-Feb-25 13:10N 59°53' E 010°41'1 0.0
2015-Feb-24 11:33N 59°54' E 010°42'1 0.6
2015-Feb-24 10:31N 59°55' E 010°44'0 0.0
2015-Feb-24 09:33N 59°55' E 010°44'0 0.0
2015-Feb-24 08:33N 59°55' E 010°44'2 1.5
2015-Feb-24 07:31N 59°54' E 010°42'0 0.4
2015-Feb-24 06:33N 59°54' E 010°42'1 1.1
2015-Feb-24 05:33N 59°55' E 010°44'0 0.0
2015-Feb-24 04:23N 59°55' E 010°44'0 0.0
2015-Feb-24 03:26N 59°55' E 010°44'0 0.0
2015-Feb-24 02:26N 59°55' E 010°44'0 0.0
2015-Feb-24 01:26N 59°55' E 010°44'0 0.0
2015-Feb-24 00:26N 59°55' E 010°44'0 0.0
2015-Feb-23 23:11N 59°55' E 010°44'0 0.0
2015-Feb-23 22:29N 59°55' E 010°44'0 0.0
2015-Feb-23 21:29N 59°55' E 010°44'0 0.0
2015-Feb-23 20:32N 59°55' E 010°44'0 0.0
2015-Feb-23 19:32N 59°55' E 010°44'0 0.0
2015-Feb-23 18:32N 59°55' E 010°44'0 0.0
2015-Feb-23 17:33N 59°55' E 010°44'0 0.0
2015-Feb-23 16:33N 59°55' E 010°44'0 0.1
2015-Feb-23 15:33N 59°55' E 010°44'0 0.1
2015-Feb-23 14:33N 59°55' E 010°44'0 0.0
2015-Feb-23 13:33N 59°55' E 010°44'0 0.0
2015-Feb-23 12:33N 59°55' E 010°44'0 0.0
2015-Feb-23 11:32N 59°55' E 010°44'0 0.0
2015-Feb-23 10:33N 59°55' E 010°44'0 0.0
2015-Feb-23 09:33N 59°55' E 010°44'0 0.0
2015-Feb-23 08:33N 59°55' E 010°44'0 0.1
2015-Feb-23 07:33N 59°55' E 010°44'0 0.1
2015-Feb-23 06:33N 59°55' E 010°44'0 0.0
2015-Feb-23 05:33N 59°55' E 010°44'0 0.0
2015-Feb-22 23:33N 59°54' E 010°44'0 0.1
2015-Feb-22 22:33N 59°55' E 010°44'0 0.1
2015-Feb-22 21:33N 59°55' E 010°44'0 0.1
2015-Feb-22 20:33N 59°54' E 010°44'0 0.0
2015-Feb-22 19:34N 59°54' E 010°44'0 0.1
2015-Feb-22 18:34N 59°55' E 010°44'0 0.0
2015-Feb-22 17:33N 59°55' E 010°44'0 0.1
2015-Feb-22 16:34N 59°55' E 010°44'0 0.1
2015-Feb-22 15:34N 59°54' E 010°44'0 0.2
2015-Feb-22 14:33N 59°55' E 010°44'0 0.0
2015-Feb-22 13:26N 59°55' E 010°44'0 0.0
2015-Feb-22 12:11N 59°55' E 010°44'0 0.0
2015-Feb-22 11:26N 59°55' E 010°44'0 0.0
2015-Feb-22 10:26N 59°55' E 010°44'0 0.0
2015-Feb-22 09:23N 59°55' E 010°44'0 0.0
2015-Feb-22 08:29N 59°55' E 010°44'0 0.0
2015-Feb-22 07:29N 59°55' E 010°44'0 0.0
2015-Feb-22 06:17N 59°55' E 010°44'0 0.0
2015-Feb-22 05:17N 59°55' E 010°44'0 0.0
2015-Feb-22 04:32N 59°55' E 010°44'0 0.0
2015-Feb-22 03:32N 59°55' E 010°44'0 0.1
2015-Feb-22 02:33N 59°54' E 010°44'0 0.0
2015-Feb-22 01:33N 59°55' E 010°44'0 0.0
2015-Feb-22 00:33N 59°55' E 010°44'0 0.1
2015-Feb-21 23:33N 59°54' E 010°44'0 0.1
2015-Feb-21 22:33N 59°55' E 010°44'0 0.0
2015-Feb-21 21:33N 59°55' E 010°44'0 0.0
2015-Feb-21 20:33N 59°55' E 010°44'0 0.1
2015-Feb-21 19:33N 59°55' E 010°44'0 0.0
2015-Feb-21 18:33N 59°55' E 010°44'0 0.0
2015-Feb-21 17:33N 59°55' E 010°44'0 0.1
2015-Feb-21 16:32N 59°55' E 010°44'0 0.0
2015-Feb-21 15:31N 59°55' E 010°44'0 0.0
2015-Feb-21 14:31N 59°55' E 010°44'0 0.0
2015-Feb-21 13:22N 59°55' E 010°44'0 0.0
2015-Feb-21 12:25N 59°55' E 010°44'0 0.0
2015-Feb-21 11:25N 59°55' E 010°44'0 0.0
2015-Feb-21 10:25N 59°55' E 010°44'0 0.0
2015-Feb-21 09:28N 59°55' E 010°44'0 0.0
2015-Feb-21 08:28N 59°55' E 010°44'0 0.0
2015-Feb-21 07:28N 59°55' E 010°44'0 0.0
2015-Feb-21 06:13N 59°55' E 010°44'0 0.0
2015-Feb-21 05:28N 59°55' E 010°44'0 0.0
2015-Feb-21 04:28N 59°55' E 010°44'0 0.0
2015-Feb-21 03:31N 59°55' E 010°44'0 0.1
2015-Feb-21 02:33N 59°55' E 010°44'0 0.0
2015-Feb-21 01:33N 59°55' E 010°44'0 0.0
2015-Feb-21 00:33N 59°55' E 010°44'0 0.0
2015-Feb-20 23:33N 59°55' E 010°44'0 0.1
2015-Feb-20 22:33N 59°55' E 010°44'0 0.0
2015-Feb-20 21:33N 59°55' E 010°44'0 0.0
2015-Feb-20 20:33N 59°55' E 010°44'0 0.0
2015-Feb-20 19:24N 59°55' E 010°44'2 2.6
2015-Feb-20 18:33N 59°53' E 010°41'1 0.7
2015-Feb-20 17:33N 59°53' E 010°40'0 0.0
2015-Feb-20 16:33N 59°53' E 010°40'2 1.6
2015-Feb-20 15:32N 59°54' E 010°42'1 1.2
2015-Feb-20 14:31N 59°55' E 010°44'0 0.0
2015-Feb-20 13:31N 59°55' E 010°44'0 0.0
2015-Feb-20 12:31N 59°55' E 010°44'0 0.0
2015-Feb-20 11:19N 59°55' E 010°44'0 0.0
2015-Feb-20 10:31N 59°55' E 010°44'0 0.0
2015-Feb-20 09:31N 59°55' E 010°44'0 0.0
2015-Feb-20 08:22N 59°55' E 010°44'2 2.5
2015-Feb-20 07:27N 59°53' E 010°40'0 0.5
2015-Feb-20 06:30N 59°53' E 010°40'0 0.1
2015-Feb-20 05:33N 59°53' E 010°40'0 0.4
2015-Feb-20 04:21N 59°52' E 010°39'0 0.0
2015-Feb-19 21:19N 59°52' E 010°39'0 0.0
2015-Feb-19 20:19N 59°52' E 010°39'0 0.0
2015-Feb-19 19:04N 59°52' E 010°39'0 0.0
2015-Feb-19 18:24N 59°52' E 010°39'0 0.2
2015-Feb-19 17:23N 59°52' E 010°40'0 0.3
2015-Feb-19 16:33N 59°53' E 010°40'2 1.5
2015-Feb-19 15:33N 59°54' E 010°42'1 1.3
2015-Feb-19 14:34N 59°55' E 010°44'0 0.0
2015-Feb-19 13:25N 59°55' E 010°44'0 0.0
2015-Feb-19 12:22N 59°55' E 010°44'0 0.0
2015-Feb-19 11:28N 59°55' E 010°44'1 0.6
2015-Feb-19 10:33N 59°54' E 010°43'3 2.7
2015-Feb-19 09:33N 59°52' E 010°42'2 2.0
2015-Feb-19 08:33N 59°53' E 010°43'2 2.1
2015-Feb-19 07:32N 59°52' E 010°40'0 0.1
2015-Feb-19 06:32N 59°53' E 010°40'0 0.1
2015-Feb-19 05:21N 59°53' E 010°40'0 0.1
2015-Feb-19 00:05N 59°52' E 010°39'0 0.0
2015-Feb-18 21:23N 59°52' E 010°39'1 0.3
2015-Feb-18 18:17N 59°53' E 010°40'1 0.8
2015-Feb-18 17:33N 59°53' E 010°40'0 0.0
2015-Feb-18 16:32N 59°53' E 010°40'  

Dump ship's entire track history